sensor_id;sensor_type;location;lat;lon;timestamp;P1;durP1;ratioP1;P2;durP2;ratioP2
58946;SDS011;44724;52.332;4.978;2022-11-20T00:01:46;10.38;;;5.32;;
58946;SDS011;44724;52.332;4.978;2022-11-20T00:04:11;10.82;;;5.25;;
58946;SDS011;44724;52.332;4.978;2022-11-20T00:06:37;12.05;;;5.82;;
58946;SDS011;44724;52.332;4.978;2022-11-20T00:09:02;11.73;;;5.97;;
58946;SDS011;44724;52.332;4.978;2022-11-20T00:11:29;12.82;;;5.90;;
58946;SDS011;44724;52.332;4.978;2022-11-20T00:13:56;13.55;;;6.30;;
58946;SDS011;44724;52.332;4.978;2022-11-20T00:16:24;13.35;;;6.18;;
58946;SDS011;44724;52.332;4.978;2022-11-20T00:18:50;12.65;;;6.78;;
58946;SDS011;44724;52.332;4.978;2022-11-20T00:21:18;15.20;;;7.18;;
58946;SDS011;44724;52.332;4.978;2022-11-20T00:23:49;14.65;;;7.55;;
58946;SDS011;44724;52.332;4.978;2022-11-20T00:26:16;11.93;;;6.57;;
58946;SDS011;44724;52.332;4.978;2022-11-20T00:28:43;11.02;;;5.57;;
58946;SDS011;44724;52.332;4.978;2022-11-20T00:33:39;10.02;;;5.43;;
58946;SDS011;44724;52.332;4.978;2022-11-20T00:36:06;12.15;;;5.82;;
58946;SDS011;44724;52.332;4.978;2022-11-20T00:38:34;13.88;;;6.43;;
58946;SDS011;44724;52.332;4.978;2022-11-20T00:41:01;9.32;;;5.43;;
58946;SDS011;44724;52.332;4.978;2022-11-20T00:43:28;10.35;;;5.50;;
58946;SDS011;44724;52.332;4.978;2022-11-20T00:46:36;10.88;;;5.65;;
58946;SDS011;44724;52.332;4.978;2022-11-20T00:48:43;10.63;;;5.40;;
58946;SDS011;44724;52.332;4.978;2022-11-20T00:51:10;13.93;;;6.65;;
58946;SDS011;44724;52.332;4.978;2022-11-20T00:53:37;10.02;;;5.75;;
58946;SDS011;44724;52.332;4.978;2022-11-20T00:56:04;14.35;;;6.28;;
58946;SDS011;44724;52.332;4.978;2022-11-20T00:58:32;12.02;;;5.60;;
58946;SDS011;44724;52.332;4.978;2022-11-20T01:01:02;10.23;;;5.45;;
58946;SDS011;44724;52.332;4.978;2022-11-20T01:03:33;9.40;;;5.20;;
58946;SDS011;44724;52.332;4.978;2022-11-20T01:06:00;9.35;;;5.72;;
58946;SDS011;44724;52.332;4.978;2022-11-20T01:08:29;12.77;;;6.07;;
58946;SDS011;44724;52.332;4.978;2022-11-20T01:11:01;11.25;;;5.10;;
58946;SDS011;44724;52.332;4.978;2022-11-20T01:13:29;11.20;;;5.63;;
58946;SDS011;44724;52.332;4.978;2022-11-20T01:18:54;11.65;;;6.57;;
58946;SDS011;44724;52.332;4.978;2022-11-20T01:21:29;11.52;;;5.63;;
58946;SDS011;44724;52.332;4.978;2022-11-20T01:23:57;12.38;;;6.90;;
58946;SDS011;44724;52.332;4.978;2022-11-20T01:26:24;14.20;;;7.10;;
58946;SDS011;44724;52.332;4.978;2022-11-20T01:28:51;12.90;;;6.68;;
58946;SDS011;44724;52.332;4.978;2022-11-20T01:31:27;11.88;;;5.93;;
58946;SDS011;44724;52.332;4.978;2022-11-20T01:33:56;10.90;;;6.35;;
58946;SDS011;44724;52.332;4.978;2022-11-20T01:36:25;12.63;;;6.10;;
58946;SDS011;44724;52.332;4.978;2022-11-20T01:38:52;10.90;;;5.32;;
58946;SDS011;44724;52.332;4.978;2022-11-20T01:41:22;13.43;;;6.40;;
58946;SDS011;44724;52.332;4.978;2022-11-20T01:44:09;12.38;;;6.57;;
58946;SDS011;44724;52.332;4.978;2022-11-20T01:46:37;14.18;;;6.47;;
58946;SDS011;44724;52.332;4.978;2022-11-20T01:49:11;12.60;;;6.15;;
58946;SDS011;44724;52.332;4.978;2022-11-20T01:51:56;9.30;;;4.65;;
58946;SDS011;44724;52.332;4.978;2022-11-20T01:54:28;10.45;;;4.85;;
58946;SDS011;44724;52.332;4.978;2022-11-20T01:57:00;11.63;;;5.60;;
58946;SDS011;44724;52.332;4.978;2022-11-20T01:59:26;11.82;;;6.05;;
58946;SDS011;44724;52.332;4.978;2022-11-20T02:01:54;11.18;;;5.78;;
58946;SDS011;44724;52.332;4.978;2022-11-20T02:04:20;12.45;;;6.00;;
58946;SDS011;44724;52.332;4.978;2022-11-20T02:06:59;12.95;;;6.28;;
58946;SDS011;44724;52.332;4.978;2022-11-20T02:09:26;13.13;;;6.50;;
58946;SDS011;44724;52.332;4.978;2022-11-20T02:11:52;10.07;;;5.78;;
58946;SDS011;44724;52.332;4.978;2022-11-20T02:14:18;11.25;;;5.43;;
58946;SDS011;44724;52.332;4.978;2022-11-20T02:16:46;13.02;;;6.15;;
58946;SDS011;44724;52.332;4.978;2022-11-20T02:19:15;10.40;;;5.50;;
58946;SDS011;44724;52.332;4.978;2022-11-20T02:24:38;11.32;;;6.18;;
58946;SDS011;44724;52.332;4.978;2022-11-20T02:27:06;11.77;;;6.07;;
58946;SDS011;44724;52.332;4.978;2022-11-20T02:29:39;13.48;;;6.55;;
58946;SDS011;44724;52.332;4.978;2022-11-20T02:34:48;12.57;;;6.70;;
58946;SDS011;44724;52.332;4.978;2022-11-20T02:37:14;13.15;;;6.75;;
58946;SDS011;44724;52.332;4.978;2022-11-20T02:39:40;13.95;;;6.57;;
58946;SDS011;44724;52.332;4.978;2022-11-20T02:42:12;13.95;;;6.55;;
58946;SDS011;44724;52.332;4.978;2022-11-20T02:44:38;11.50;;;5.68;;
58946;SDS011;44724;52.332;4.978;2022-11-20T02:47:03;13.32;;;5.85;;
58946;SDS011;44724;52.332;4.978;2022-11-20T02:49:29;13.35;;;6.63;;
58946;SDS011;44724;52.332;4.978;2022-11-20T02:51:54;12.13;;;6.15;;
58946;SDS011;44724;52.332;4.978;2022-11-20T02:54:20;11.65;;;6.05;;
58946;SDS011;44724;52.332;4.978;2022-11-20T02:56:45;12.48;;;6.20;;
58946;SDS011;44724;52.332;4.978;2022-11-20T02:59:10;12.20;;;6.25;;
58946;SDS011;44724;52.332;4.978;2022-11-20T03:01:36;10.75;;;5.97;;
58946;SDS011;44724;52.332;4.978;2022-11-20T03:04:01;10.05;;;5.10;;
58946;SDS011;44724;52.332;4.978;2022-11-20T03:06:27;9.88;;;5.13;;
58946;SDS011;44724;52.332;4.978;2022-11-20T03:08:53;13.55;;;6.22;;
58946;SDS011;44724;52.332;4.978;2022-11-20T03:11:19;14.00;;;6.78;;
58946;SDS011;44724;52.332;4.978;2022-11-20T03:13:44;12.18;;;6.43;;
58946;SDS011;44724;52.332;4.978;2022-11-20T03:16:11;12.40;;;5.63;;
58946;SDS011;44724;52.332;4.978;2022-11-20T03:18:39;11.32;;;5.40;;
58946;SDS011;44724;52.332;4.978;2022-11-20T03:21:06;14.43;;;5.82;;
58946;SDS011;44724;52.332;4.978;2022-11-20T03:23:32;12.73;;;5.75;;
58946;SDS011;44724;52.332;4.978;2022-11-20T03:26:08;12.52;;;5.45;;
58946;SDS011;44724;52.332;4.978;2022-11-20T03:28:50;10.13;;;5.47;;
58946;SDS011;44724;52.332;4.978;2022-11-20T03:31:24;11.38;;;5.70;;
58946;SDS011;44724;52.332;4.978;2022-11-20T03:33:55;11.18;;;5.70;;
58946;SDS011;44724;52.332;4.978;2022-11-20T03:36:21;13.07;;;5.85;;
58946;SDS011;44724;52.332;4.978;2022-11-20T03:38:47;11.50;;;5.97;;
58946;SDS011;44724;52.332;4.978;2022-11-20T03:41:14;12.85;;;6.78;;
58946;SDS011;44724;52.332;4.978;2022-11-20T03:43:48;13.85;;;6.43;;
58946;SDS011;44724;52.332;4.978;2022-11-20T03:46:18;13.30;;;6.40;;
58946;SDS011;44724;52.332;4.978;2022-11-20T03:48:44;14.40;;;6.53;;
58946;SDS011;44724;52.332;4.978;2022-11-20T03:51:29;14.13;;;7.10;;
58946;SDS011;44724;52.332;4.978;2022-11-20T03:53:57;11.60;;;5.80;;
58946;SDS011;44724;52.332;4.978;2022-11-20T03:56:28;14.73;;;6.38;;
58946;SDS011;44724;52.332;4.978;2022-11-20T03:58:55;13.45;;;6.60;;
58946;SDS011;44724;52.332;4.978;2022-11-20T04:01:23;14.07;;;6.82;;
58946;SDS011;44724;52.332;4.978;2022-11-20T04:03:53;11.05;;;6.30;;
58946;SDS011;44724;52.332;4.978;2022-11-20T04:06:22;11.60;;;5.90;;
58946;SDS011;44724;52.332;4.978;2022-11-20T04:08:56;10.30;;;5.40;;
58946;SDS011;44724;52.332;4.978;2022-11-20T04:11:23;15.93;;;6.82;;
58946;SDS011;44724;52.332;4.978;2022-11-20T04:13:51;13.35;;;6.35;;
58946;SDS011;44724;52.332;4.978;2022-11-20T04:16:20;12.48;;;6.38;;
58946;SDS011;44724;52.332;4.978;2022-11-20T04:18:46;13.35;;;6.18;;
58946;SDS011;44724;52.332;4.978;2022-11-20T04:21:12;12.35;;;5.50;;
58946;SDS011;44724;52.332;4.978;2022-11-20T04:23:37;13.52;;;6.03;;
58946;SDS011;44724;52.332;4.978;2022-11-20T04:26:04;13.57;;;6.03;;
58946;SDS011;44724;52.332;4.978;2022-11-20T04:28:34;10.25;;;5.30;;
58946;SDS011;44724;52.332;4.978;2022-11-20T04:31:04;11.13;;;5.70;;
58946;SDS011;44724;52.332;4.978;2022-11-20T04:33:31;12.43;;;6.23;;
58946;SDS011;44724;52.332;4.978;2022-11-20T04:36:16;13.93;;;6.32;;
58946;SDS011;44724;52.332;4.978;2022-11-20T04:38:44;14.77;;;6.88;;
58946;SDS011;44724;52.332;4.978;2022-11-20T04:41:20;14.05;;;6.20;;
58946;SDS011;44724;52.332;4.978;2022-11-20T04:43:46;11.65;;;6.05;;
58946;SDS011;44724;52.332;4.978;2022-11-20T04:46:17;12.93;;;6.72;;
58946;SDS011;44724;52.332;4.978;2022-11-20T04:48:43;11.45;;;6.30;;
58946;SDS011;44724;52.332;4.978;2022-11-20T04:51:09;13.82;;;7.15;;
58946;SDS011;44724;52.332;4.978;2022-11-20T04:53:35;13.52;;;7.18;;
58946;SDS011;44724;52.332;4.978;2022-11-20T04:56:00;15.40;;;7.28;;
58946;SDS011;44724;52.332;4.978;2022-11-20T04:58:27;11.05;;;6.18;;
58946;SDS011;44724;52.332;4.978;2022-11-20T05:00:52;16.63;;;7.53;;
58946;SDS011;44724;52.332;4.978;2022-11-20T05:03:18;15.80;;;7.20;;
58946;SDS011;44724;52.332;4.978;2022-11-20T05:05:43;14.18;;;6.90;;
58946;SDS011;44724;52.332;4.978;2022-11-20T05:08:09;14.35;;;7.25;;
58946;SDS011;44724;52.332;4.978;2022-11-20T05:10:34;13.10;;;6.72;;
58946;SDS011;44724;52.332;4.978;2022-11-20T05:12:59;12.95;;;6.32;;
58946;SDS011;44724;52.332;4.978;2022-11-20T05:15:25;13.20;;;6.90;;
58946;SDS011;44724;52.332;4.978;2022-11-20T05:17:50;14.35;;;7.57;;
58946;SDS011;44724;52.332;4.978;2022-11-20T05:20:17;14.02;;;7.45;;
58946;SDS011;44724;52.332;4.978;2022-11-20T05:22:43;13.73;;;6.78;;
58946;SDS011;44724;52.332;4.978;2022-11-20T05:25:09;13.90;;;6.40;;
58946;SDS011;44724;52.332;4.978;2022-11-20T05:27:35;13.95;;;6.90;;
58946;SDS011;44724;52.332;4.978;2022-11-20T05:30:01;14.20;;;6.47;;
58946;SDS011;44724;52.332;4.978;2022-11-20T05:32:27;15.35;;;6.75;;
58946;SDS011;44724;52.332;4.978;2022-11-20T05:34:52;15.10;;;7.38;;
58946;SDS011;44724;52.332;4.978;2022-11-20T05:37:18;13.95;;;7.35;;
58946;SDS011;44724;52.332;4.978;2022-11-20T05:39:43;14.68;;;6.85;;
58946;SDS011;44724;52.332;4.978;2022-11-20T05:42:08;12.38;;;7.00;;
58946;SDS011;44724;52.332;4.978;2022-11-20T05:44:53;16.15;;;7.75;;
58946;SDS011;44724;52.332;4.978;2022-11-20T05:47:18;14.68;;;6.43;;
58946;SDS011;44724;52.332;4.978;2022-11-20T05:49:43;14.70;;;7.55;;
58946;SDS011;44724;52.332;4.978;2022-11-20T05:52:09;16.45;;;6.82;;
58946;SDS011;44724;52.332;4.978;2022-11-20T05:54:34;16.02;;;6.63;;
58946;SDS011;44724;52.332;4.978;2022-11-20T05:56:59;15.98;;;6.93;;
58946;SDS011;44724;52.332;4.978;2022-11-20T05:59:25;12.65;;;6.90;;
58946;SDS011;44724;52.332;4.978;2022-11-20T06:01:50;13.38;;;6.22;;
58946;SDS011;44724;52.332;4.978;2022-11-20T06:04:16;16.08;;;7.35;;
58946;SDS011;44724;52.332;4.978;2022-11-20T06:06:41;11.32;;;5.82;;
58946;SDS011;44724;52.332;4.978;2022-11-20T06:09:09;14.68;;;6.53;;
58946;SDS011;44724;52.332;4.978;2022-11-20T06:11:35;14.82;;;6.38;;
58946;SDS011;44724;52.332;4.978;2022-11-20T06:14:00;14.52;;;7.35;;
58946;SDS011;44724;52.332;4.978;2022-11-20T06:16:25;15.65;;;7.05;;
58946;SDS011;44724;52.332;4.978;2022-11-20T06:18:53;17.67;;;7.57;;
58946;SDS011;44724;52.332;4.978;2022-11-20T06:21:20;13.73;;;7.05;;
58946;SDS011;44724;52.332;4.978;2022-11-20T06:23:47;14.00;;;7.05;;
58946;SDS011;44724;52.332;4.978;2022-11-20T06:26:14;14.85;;;7.18;;
58946;SDS011;44724;52.332;4.978;2022-11-20T06:28:44;12.70;;;6.65;;
58946;SDS011;44724;52.332;4.978;2022-11-20T06:31:10;16.20;;;6.85;;
58946;SDS011;44724;52.332;4.978;2022-11-20T06:33:38;16.10;;;7.85;;
58946;SDS011;44724;52.332;4.978;2022-11-20T06:36:04;18.55;;;7.53;;
58946;SDS011;44724;52.332;4.978;2022-11-20T06:38:30;20.10;;;8.60;;
58946;SDS011;44724;52.332;4.978;2022-11-20T06:40:56;14.77;;;6.57;;
58946;SDS011;44724;52.332;4.978;2022-11-20T06:43:21;16.75;;;7.65;;
58946;SDS011;44724;52.332;4.978;2022-11-20T06:45:52;15.68;;;7.22;;
58946;SDS011;44724;52.332;4.978;2022-11-20T06:48:18;16.98;;;7.65;;
58946;SDS011;44724;52.332;4.978;2022-11-20T06:50:43;16.08;;;7.65;;
58946;SDS011;44724;52.332;4.978;2022-11-20T06:53:08;15.25;;;7.10;;
58946;SDS011;44724;52.332;4.978;2022-11-20T06:55:34;14.35;;;7.20;;
58946;SDS011;44724;52.332;4.978;2022-11-20T06:57:59;18.05;;;7.95;;
58946;SDS011;44724;52.332;4.978;2022-11-20T07:00:24;17.80;;;7.82;;
58946;SDS011;44724;52.332;4.978;2022-11-20T07:02:50;17.08;;;7.78;;
58946;SDS011;44724;52.332;4.978;2022-11-20T07:05:15;16.85;;;7.93;;
58946;SDS011;44724;52.332;4.978;2022-11-20T07:07:41;16.70;;;8.80;;
58946;SDS011;44724;52.332;4.978;2022-11-20T07:10:07;17.17;;;8.45;;
58946;SDS011;44724;52.332;4.978;2022-11-20T07:12:33;16.63;;;8.15;;
58946;SDS011;44724;52.332;4.978;2022-11-20T07:14:58;19.75;;;9.40;;
58946;SDS011;44724;52.332;4.978;2022-11-20T07:17:23;17.95;;;8.60;;
58946;SDS011;44724;52.332;4.978;2022-11-20T07:19:49;18.98;;;8.85;;
58946;SDS011;44724;52.332;4.978;2022-11-20T07:22:14;15.90;;;8.23;;
58946;SDS011;44724;52.332;4.978;2022-11-20T07:24:40;19.08;;;8.98;;
58946;SDS011;44724;52.332;4.978;2022-11-20T07:27:05;20.80;;;9.70;;
58946;SDS011;44724;52.332;4.978;2022-11-20T07:29:30;18.55;;;8.55;;
58946;SDS011;44724;52.332;4.978;2022-11-20T07:31:58;20.38;;;8.82;;
58946;SDS011;44724;52.332;4.978;2022-11-20T07:34:24;14.68;;;7.50;;
58946;SDS011;44724;52.332;4.978;2022-11-20T07:36:49;14.00;;;7.38;;
58946;SDS011;44724;52.332;4.978;2022-11-20T07:39:15;21.77;;;9.77;;
58946;SDS011;44724;52.332;4.978;2022-11-20T07:41:40;17.40;;;8.65;;
58946;SDS011;44724;52.332;4.978;2022-11-20T07:44:06;17.10;;;8.00;;
58946;SDS011;44724;52.332;4.978;2022-11-20T07:46:31;16.70;;;8.20;;
58946;SDS011;44724;52.332;4.978;2022-11-20T07:48:57;16.20;;;8.52;;
58946;SDS011;44724;52.332;4.978;2022-11-20T07:51:22;18.98;;;8.77;;
58946;SDS011;44724;52.332;4.978;2022-11-20T07:53:52;18.80;;;9.18;;
58946;SDS011;44724;52.332;4.978;2022-11-20T07:56:18;17.90;;;8.52;;
58946;SDS011;44724;52.332;4.978;2022-11-20T07:58:43;20.08;;;9.75;;
58946;SDS011;44724;52.332;4.978;2022-11-20T08:01:08;16.50;;;9.45;;
58946;SDS011;44724;52.332;4.978;2022-11-20T08:03:34;21.13;;;9.68;;
58946;SDS011;44724;52.332;4.978;2022-11-20T08:06:02;15.65;;;8.07;;
58946;SDS011;44724;52.332;4.978;2022-11-20T08:08:28;19.15;;;10.18;;
58946;SDS011;44724;52.332;4.978;2022-11-20T08:10:53;20.23;;;9.80;;
58946;SDS011;44724;52.332;4.978;2022-11-20T08:13:39;17.10;;;9.25;;
58946;SDS011;44724;52.332;4.978;2022-11-20T08:16:23;18.85;;;9.27;;
58946;SDS011;44724;52.332;4.978;2022-11-20T08:18:48;16.75;;;9.60;;
58946;SDS011;44724;52.332;4.978;2022-11-20T08:21:14;19.70;;;9.75;;
58946;SDS011;44724;52.332;4.978;2022-11-20T08:23:40;17.20;;;10.00;;
58946;SDS011;44724;52.332;4.978;2022-11-20T08:26:05;21.85;;;10.20;;
58946;SDS011;44724;52.332;4.978;2022-11-20T08:28:30;20.60;;;9.50;;
58946;SDS011;44724;52.332;4.978;2022-11-20T08:30:59;17.60;;;9.90;;
58946;SDS011;44724;52.332;4.978;2022-11-20T08:33:25;20.65;;;10.20;;
58946;SDS011;44724;52.332;4.978;2022-11-20T08:35:51;13.25;;;6.95;;
58946;SDS011;44724;52.332;4.978;2022-11-20T08:38:16;16.27;;;9.68;;
58946;SDS011;44724;52.332;4.978;2022-11-20T08:40:42;21.25;;;10.85;;
58946;SDS011;44724;52.332;4.978;2022-11-20T08:43:27;20.50;;;11.45;;
58946;SDS011;44724;52.332;4.978;2022-11-20T08:45:52;22.25;;;11.40;;
58946;SDS011;44724;52.332;4.978;2022-11-20T08:48:18;19.50;;;10.98;;
58946;SDS011;44724;52.332;4.978;2022-11-20T08:50:43;22.08;;;11.40;;
58946;SDS011;44724;52.332;4.978;2022-11-20T08:53:08;15.77;;;8.50;;
58946;SDS011;44724;52.332;4.978;2022-11-20T08:55:34;18.33;;;9.95;;
58946;SDS011;44724;52.332;4.978;2022-11-20T08:58:08;19.48;;;10.50;;
58946;SDS011;44724;52.332;4.978;2022-11-20T09:00:33;14.70;;;7.95;;
58946;SDS011;44724;52.332;4.978;2022-11-20T09:02:59;17.60;;;9.02;;
58946;SDS011;44724;52.332;4.978;2022-11-20T09:05:26;18.02;;;10.48;;
58946;SDS011;44724;52.332;4.978;2022-11-20T09:07:57;20.27;;;10.23;;
58946;SDS011;44724;52.332;4.978;2022-11-20T09:10:24;21.17;;;12.05;;
58946;SDS011;44724;52.332;4.978;2022-11-20T09:12:50;19.80;;;10.45;;
58946;SDS011;44724;52.332;4.978;2022-11-20T09:15:16;17.48;;;8.35;;
58946;SDS011;44724;52.332;4.978;2022-11-20T09:17:42;23.38;;;10.93;;
58946;SDS011;44724;52.332;4.978;2022-11-20T09:20:16;16.63;;;9.27;;
58946;SDS011;44724;52.332;4.978;2022-11-20T09:22:41;18.48;;;8.57;;
58946;SDS011;44724;52.332;4.978;2022-11-20T09:25:06;19.75;;;11.43;;
58946;SDS011;44724;52.332;4.978;2022-11-20T09:27:32;21.85;;;12.35;;
58946;SDS011;44724;52.332;4.978;2022-11-20T09:29:57;17.70;;;10.70;;
58946;SDS011;44724;52.332;4.978;2022-11-20T09:32:23;15.25;;;8.27;;
58946;SDS011;44724;52.332;4.978;2022-11-20T09:34:48;22.70;;;12.13;;
58946;SDS011;44724;52.332;4.978;2022-11-20T09:37:13;22.15;;;11.43;;
58946;SDS011;44724;52.332;4.978;2022-11-20T09:39:39;22.88;;;11.82;;
58946;SDS011;44724;52.332;4.978;2022-11-20T09:44:34;24.52;;;13.13;;
58946;SDS011;44724;52.332;4.978;2022-11-20T09:47:24;20.23;;;11.25;;
58946;SDS011;44724;52.332;4.978;2022-11-20T09:55:52;16.40;;;9.00;;
58946;SDS011;44724;52.332;4.978;2022-11-20T09:58:24;9.90;;;6.57;;
58946;SDS011;44724;52.332;4.978;2022-11-20T10:00:59;25.58;;;13.20;;
58946;SDS011;44724;52.332;4.978;2022-11-20T10:06:47;14.30;;;8.93;;
58946;SDS011;44724;52.332;4.978;2022-11-20T10:12:19;15.50;;;7.55;;
58946;SDS011;44724;52.332;4.978;2022-11-20T10:14:52;12.77;;;7.20;;
58946;SDS011;44724;52.332;4.978;2022-11-20T10:21:30;14.27;;;7.93;;
58946;SDS011;44724;52.332;4.978;2022-11-20T10:24:15;21.02;;;10.60;;
58946;SDS011;44724;52.332;4.978;2022-11-20T10:26:58;21.58;;;11.68;;
58946;SDS011;44724;52.332;4.978;2022-11-20T10:29:34;12.75;;;7.28;;
58946;SDS011;44724;52.332;4.978;2022-11-20T10:32:04;17.33;;;9.68;;
58946;SDS011;44724;52.332;4.978;2022-11-20T10:37:30;21.92;;;11.85;;
58946;SDS011;44724;52.332;4.978;2022-11-20T10:40:03;23.17;;;12.05;;
58946;SDS011;44724;52.332;4.978;2022-11-20T10:42:44;9.20;;;5.32;;
58946;SDS011;44724;52.332;4.978;2022-11-20T10:48:22;19.50;;;10.45;;
58946;SDS011;44724;52.332;4.978;2022-11-20T10:50:53;18.42;;;10.85;;
58946;SDS011;44724;52.332;4.978;2022-11-20T10:56:38;21.80;;;11.80;;
58946;SDS011;44724;52.332;4.978;2022-11-20T11:02:01;11.70;;;6.70;;
58946;SDS011;44724;52.332;4.978;2022-11-20T11:04:33;13.60;;;7.90;;
58946;SDS011;44724;52.332;4.978;2022-11-20T11:07:08;22.77;;;11.60;;
58946;SDS011;44724;52.332;4.978;2022-11-20T11:12:14;23.70;;;13.55;;
58946;SDS011;44724;52.332;4.978;2022-11-20T11:14:49;20.58;;;11.90;;
58946;SDS011;44724;52.332;4.978;2022-11-20T11:17:28;21.70;;;10.95;;
58946;SDS011;44724;52.332;4.978;2022-11-20T11:19:59;24.60;;;12.80;;
58946;SDS011;44724;52.332;4.978;2022-11-20T11:22:28;19.77;;;10.60;;
58946;SDS011;44724;52.332;4.978;2022-11-20T11:24:55;25.77;;;12.52;;
58946;SDS011;44724;52.332;4.978;2022-11-20T11:27:20;23.25;;;12.65;;
58946;SDS011;44724;52.332;4.978;2022-11-20T11:29:46;22.65;;;11.95;;
58946;SDS011;44724;52.332;4.978;2022-11-20T11:32:13;20.73;;;9.82;;
58946;SDS011;44724;52.332;4.978;2022-11-20T11:34:40;21.88;;;12.40;;
58946;SDS011;44724;52.332;4.978;2022-11-20T11:37:09;26.15;;;13.75;;
58946;SDS011;44724;52.332;4.978;2022-11-20T11:39:40;24.23;;;14.10;;
58946;SDS011;44724;52.332;4.978;2022-11-20T11:42:07;30.20;;;14.65;;
58946;SDS011;44724;52.332;4.978;2022-11-20T11:44:38;27.40;;;15.05;;
58946;SDS011;44724;52.332;4.978;2022-11-20T11:47:43;28.25;;;14.07;;
58946;SDS011;44724;52.332;4.978;2022-11-20T11:55:29;27.60;;;14.65;;
58946;SDS011;44724;52.332;4.978;2022-11-20T11:58:09;25.13;;;14.50;;
58946;SDS011;44724;52.332;4.978;2022-11-20T12:00:39;24.70;;;13.15;;
58946;SDS011;44724;52.332;4.978;2022-11-20T12:05:48;29.55;;;14.40;;
58946;SDS011;44724;52.332;4.978;2022-11-20T12:08:39;20.90;;;11.82;;
58946;SDS011;44724;52.332;4.978;2022-11-20T12:11:16;28.02;;;15.02;;
58946;SDS011;44724;52.332;4.978;2022-11-20T12:16:34;30.88;;;15.25;;
58946;SDS011;44724;52.332;4.978;2022-11-20T12:19:01;32.95;;;15.23;;
58946;SDS011;44724;52.332;4.978;2022-11-20T12:21:35;26.40;;;13.57;;
58946;SDS011;44724;52.332;4.978;2022-11-20T12:29:48;25.55;;;13.10;;
58946;SDS011;44724;52.332;4.978;2022-11-20T12:35:32;30.77;;;15.48;;
58946;SDS011;44724;52.332;4.978;2022-11-20T12:40:45;26.27;;;12.77;;
58946;SDS011;44724;52.332;4.978;2022-11-20T12:43:25;32.85;;;15.88;;
58946;SDS011;44724;52.332;4.978;2022-11-20T12:46:31;23.40;;;12.43;;
58946;SDS011;44724;52.332;4.978;2022-11-20T12:49:23;26.92;;;13.65;;
58946;SDS011;44724;52.332;4.978;2022-11-20T12:54:43;32.17;;;14.90;;
58946;SDS011;44724;52.332;4.978;2022-11-20T13:07:38;30.40;;;15.38;;
58946;SDS011;44724;52.332;4.978;2022-11-20T13:10:05;32.80;;;15.75;;
58946;SDS011;44724;52.332;4.978;2022-11-20T13:12:54;33.78;;;15.32;;
58946;SDS011;44724;52.332;4.978;2022-11-20T13:18:02;27.35;;;14.63;;
58946;SDS011;44724;52.332;4.978;2022-11-20T13:20:32;31.27;;;15.32;;
58946;SDS011;44724;52.332;4.978;2022-11-20T13:22:59;25.80;;;11.25;;
58946;SDS011;44724;52.332;4.978;2022-11-20T13:25:25;27.50;;;12.55;;
58946;SDS011;44724;52.332;4.978;2022-11-20T13:27:56;28.83;;;13.93;;
58946;SDS011;44724;52.332;4.978;2022-11-20T13:30:49;31.02;;;15.18;;
58946;SDS011;44724;52.332;4.978;2022-11-20T13:33:23;29.00;;;14.32;;
58946;SDS011;44724;52.332;4.978;2022-11-20T13:38:26;30.13;;;14.80;;
58946;SDS011;44724;52.332;4.978;2022-11-20T13:40:54;26.77;;;15.32;;
58946;SDS011;44724;52.332;4.978;2022-11-20T13:43:38;23.98;;;12.02;;
58946;SDS011;44724;52.332;4.978;2022-11-20T13:46:07;30.30;;;15.55;;
58946;SDS011;44724;52.332;4.978;2022-11-20T13:48:43;28.30;;;13.73;;
58946;SDS011;44724;52.332;4.978;2022-11-20T13:56:54;29.98;;;15.40;;
58946;SDS011;44724;52.332;4.978;2022-11-20T14:02:14;29.65;;;15.75;;
58946;SDS011;44724;52.332;4.978;2022-11-20T14:04:46;31.08;;;14.60;;
58946;SDS011;44724;52.332;4.978;2022-11-20T14:07:14;29.50;;;15.73;;
58946;SDS011;44724;52.332;4.978;2022-11-20T14:12:18;33.45;;;15.90;;
58946;SDS011;44724;52.332;4.978;2022-11-20T14:14:50;32.47;;;14.88;;
58946;SDS011;44724;52.332;4.978;2022-11-20T14:17:18;28.48;;;14.07;;
58946;SDS011;44724;52.332;4.978;2022-11-20T14:19:46;29.83;;;14.00;;
58946;SDS011;44724;52.332;4.978;2022-11-20T14:24:38;24.30;;;11.75;;
58946;SDS011;44724;52.332;4.978;2022-11-20T14:27:04;23.52;;;11.98;;
58946;SDS011;44724;52.332;4.978;2022-11-20T14:29:33;28.50;;;14.50;;
58946;SDS011;44724;52.332;4.978;2022-11-20T14:32:01;31.23;;;14.95;;
58946;SDS011;44724;52.332;4.978;2022-11-20T14:34:28;30.85;;;16.27;;
58946;SDS011;44724;52.332;4.978;2022-11-20T14:37:00;29.20;;;14.65;;
58946;SDS011;44724;52.332;4.978;2022-11-20T14:42:18;30.25;;;15.35;;
58946;SDS011;44724;52.332;4.978;2022-11-20T14:44:45;31.33;;;15.20;;
58946;SDS011;44724;52.332;4.978;2022-11-20T14:47:15;36.05;;;16.55;;
58946;SDS011;44724;52.332;4.978;2022-11-20T14:49:44;28.95;;;15.68;;
58946;SDS011;44724;52.332;4.978;2022-11-20T14:52:21;30.98;;;15.48;;
58946;SDS011;44724;52.332;4.978;2022-11-20T14:54:49;28.63;;;15.23;;
58946;SDS011;44724;52.332;4.978;2022-11-20T15:00:07;30.15;;;14.90;;
58946;SDS011;44724;52.332;4.978;2022-11-20T15:02:42;34.15;;;15.35;;
58946;SDS011;44724;52.332;4.978;2022-11-20T15:05:09;31.67;;;16.10;;
58946;SDS011;44724;52.332;4.978;2022-11-20T15:07:36;32.80;;;15.60;;
58946;SDS011;44724;52.332;4.978;2022-11-20T15:10:09;32.85;;;15.65;;
58946;SDS011;44724;52.332;4.978;2022-11-20T15:12:37;35.13;;;16.58;;
58946;SDS011;44724;52.332;4.978;2022-11-20T15:15:10;34.30;;;16.33;;
58946;SDS011;44724;52.332;4.978;2022-11-20T15:17:39;33.33;;;16.77;;
58946;SDS011;44724;52.332;4.978;2022-11-20T15:20:15;32.50;;;16.73;;
58946;SDS011;44724;52.332;4.978;2022-11-20T15:22:44;32.50;;;15.27;;
58946;SDS011;44724;52.332;4.978;2022-11-20T15:25:14;30.77;;;14.45;;
58946;SDS011;44724;52.332;4.978;2022-11-20T15:27:40;28.55;;;13.57;;
58946;SDS011;44724;52.332;4.978;2022-11-20T15:30:14;31.58;;;15.48;;
58946;SDS011;44724;52.332;4.978;2022-11-20T15:32:42;28.48;;;13.88;;
58946;SDS011;44724;52.332;4.978;2022-11-20T15:35:08;32.88;;;16.20;;
58946;SDS011;44724;52.332;4.978;2022-11-20T15:37:34;31.10;;;15.07;;
58946;SDS011;44724;52.332;4.978;2022-11-20T15:39:59;25.60;;;13.57;;
58946;SDS011;44724;52.332;4.978;2022-11-20T15:42:24;34.53;;;17.30;;
58946;SDS011;44724;52.332;4.978;2022-11-20T15:44:50;29.10;;;15.90;;
58946;SDS011;44724;52.332;4.978;2022-11-20T15:47:15;36.35;;;18.00;;
58946;SDS011;44724;52.332;4.978;2022-11-20T15:49:42;33.67;;;16.80;;
58946;SDS011;44724;52.332;4.978;2022-11-20T15:52:09;29.35;;;14.82;;
58946;SDS011;44724;52.332;4.978;2022-11-20T15:54:35;32.03;;;15.73;;
58946;SDS011;44724;52.332;4.978;2022-11-20T15:57:00;34.70;;;16.73;;
58946;SDS011;44724;52.332;4.978;2022-11-20T15:59:27;30.55;;;16.02;;
58946;SDS011;44724;52.332;4.978;2022-11-20T16:01:53;29.67;;;16.10;;
58946;SDS011;44724;52.332;4.978;2022-11-20T16:04:18;30.10;;;16.10;;
58946;SDS011;44724;52.332;4.978;2022-11-20T16:06:44;35.70;;;16.23;;
58946;SDS011;44724;52.332;4.978;2022-11-20T16:09:09;35.92;;;18.55;;
58946;SDS011;44724;52.332;4.978;2022-11-20T16:11:35;26.23;;;13.93;;
58946;SDS011;44724;52.332;4.978;2022-11-20T16:14:01;34.08;;;16.52;;
58946;SDS011;44724;52.332;4.978;2022-11-20T16:16:46;27.60;;;15.02;;
58946;SDS011;44724;52.332;4.978;2022-11-20T16:19:12;29.90;;;14.98;;
58946;SDS011;44724;52.332;4.978;2022-11-20T16:21:38;27.38;;;14.05;;
58946;SDS011;44724;52.332;4.978;2022-11-20T16:24:06;29.15;;;14.52;;
58946;SDS011;44724;52.332;4.978;2022-11-20T16:26:35;32.42;;;15.80;;